Time;durP1;ratioP1;P1;durP2;ratioP2;P2;SDS_P1;SDS_P2;PMS_P1;PMS_P2;Temp;Humidity;BMP_temperature;BMP_pressure;BME280_temperature;BME280_humidity;BME280_pressure;Samples;Min_cycle;Max_cycle;Signal;HPM_P1;HPM_P2
2021/09/27 06:56:59;;;;;;;8.40;6.45;;;;;;;;;;10605053;28;20119;-88
2021/09/27 07:02:00;;;;;;;5.70;5.10;;;;;;;;;;10554035;28;20044;-86
2021/09/27 07:07:09;;;;;;;5.45;4.60;;;;;;;;;;10538823;28;20127;-86
2021/09/27 07:12:14;;;;;;;5.50;4.60;;;;;;;;;;10536557;28;20033;-84
2021/09/27 07:17:15;;;;;;;6.45;4.88;;;;;;;;;;10555379;28;20028;-85
2021/09/27 07:22:16;;;;;;;7.47;5.00;;;;;;;;;;10553011;28;20033;-84
2021/09/27 07:27:17;;;;;;;6.90;5.97;;;;;;;;;;10555610;28;20071;-84
2021/09/27 07:32:18;;;;;;;7.65;6.70;;;;;;;;;;10558709;28;20032;-85
2021/09/27 07:37:19;;;;;;;10.07;6.30;;;;;;;;;;10557562;28;20497;-85
2021/09/27 07:42:20;;;;;;;5.78;5.15;;;;;;;;;;10557405;28;20409;-88
2021/09/27 07:47:21;;;;;;;6.70;5.40;;;;;;;;;;10555962;28;20131;-84
2021/09/27 07:52:22;;;;;;;7.13;5.22;;;;;;;;;;10548141;28;20032;-84
2021/09/27 07:57:23;;;;;;;8.10;5.82;;;;;;;;;;10551043;28;20032;-84
2021/09/27 08:02:29;;;;;;;9.07;6.35;;;;;;;;;;10548808;28;20050;-84
2021/09/27 08:07:30;;;;;;;10.40;6.65;;;;;;;;;;10552102;28;20055;-83
2021/09/27 08:12:36;;;;;;;7.65;6.68;;;;;;;;;;10549151;28;20051;-84
2021/09/27 08:17:37;;;;;;;7.15;6.43;;;;;;;;;;10553033;28;20044;-85
2021/09/27 08:22:38;;;;;;;7.18;6.43;;;;;;;;;;10543593;28;20051;-85
2021/09/27 08:27:39;;;;;;;8.23;6.60;;;;;;;;;;10543204;28;20032;-84
2021/09/27 08:32:40;;;;;;;9.18;7.93;;;;;;;;;;10546416;28;20039;-85
2021/09/27 08:37:44;;;;;;;7.50;6.53;;;;;;;;;;10544790;28;20549;-85
2021/09/27 08:42:46;;;;;;;8.52;6.80;;;;;;;;;;10542442;28;20099;-85
2021/09/27 08:48:07;;;;;;;9.20;6.65;;;;;;;;;;10540560;28;20050;-83
2021/09/27 08:53:13;;;;;;;7.80;7.00;;;;;;;;;;10539044;28;20036;-85
2021/09/27 08:58:26;;;;;;;7.57;6.78;;;;;;;;;;10540017;28;20036;-85
2021/09/27 09:03:42;;;;;;;7.43;6.22;;;;;;;;;;10536465;28;20082;-84
2021/09/27 09:08:45;;;;;;;7.20;6.18;;;;;;;;;;10535488;28;20064;-84
2021/09/27 09:13:52;;;;;;;8.93;6.45;;;;;;;;;;10539445;28;20032;-83
2021/09/27 09:18:55;;;;;;;6.93;6.07;;;;;;;;;;10543622;28;20398;-84
2021/09/27 09:23:57;;;;;;;6.50;5.90;;;;;;;;;;10543608;28;20110;-85
2021/09/27 09:28:59;;;;;;;7.60;6.80;;;;;;;;;;10557257;28;20034;-85
2021/09/27 09:34:25;;;;;;;7.40;5.63;;;;;;;;;;10539028;28;20108;-85
2021/09/27 09:39:31;;;;;;;7.13;5.80;;;;;;;;;;10537376;28;20081;-86
2021/09/27 09:44:35;;;;;;;6.07;5.47;;;;;;;;;;10558272;28;20044;-85
2021/09/27 09:50:03;;;;;;;6.15;5.15;;;;;;;;;;10555607;28;20082;-86
2021/09/27 09:55:16;;;;;;;6.50;5.63;;;;;;;;;;10509340;28;20032;-85
2021/09/27 10:00:19;;;;;;;5.43;4.72;;;;;;;;;;10549778;28;20042;-86
2021/09/27 10:05:22;;;;;;;5.45;4.90;;;;;;;;;;10531144;28;20052;-85
2021/09/27 10:10:56;;;;;;;5.45;4.57;;;;;;;;;;10532753;28;20474;-85
2021/09/27 10:15:57;;;;;;;4.90;4.40;;;;;;;;;;10497205;28;20042;-85
2021/09/27 10:21:33;;;;;;;4.93;4.28;;;;;;;;;;10535615;28;20075;-85
2021/09/27 10:26:40;;;;;;;4.88;4.05;;;;;;;;;;10558533;28;20044;-88
2021/09/27 10:31:44;;;;;;;5.57;3.80;;;;;;;;;;10532538;28;20044;-87
2021/09/27 10:36:56;;;;;;;5.30;4.30;;;;;;;;;;10535670;28;20088;-88
2021/09/27 10:42:15;;;;;;;4.55;3.50;;;;;;;;;;10538146;28;20040;-86
2021/09/27 10:47:38;;;;;;;6.25;4.32;;;;;;;;;;10536224;28;20036;-86
2021/09/27 10:53:03;;;;;;;4.43;3.70;;;;;;;;;;10534969;28;20035;-85
2021/09/27 10:58:25;;;;;;;5.80;3.85;;;;;;;;;;10527813;28;20090;-87
2021/09/27 11:03:30;;;;;;;4.80;4.30;;;;;;;;;;10533436;28;20040;-87
2021/09/27 11:08:51;;;;;;;5.85;3.60;;;;;;;;;;10550904;28;20057;-87
2021/09/27 11:20:00;;;;;;;5.55;3.50;;;;;;;;;;10467845;28;20483;-87
2021/09/27 11:25:20;;;;;;;5.35;3.83;;;;;;;;;;10532200;28;20028;-87
2021/09/27 11:30:21;;;;;;;4.93;4.20;;;;;;;;;;10533036;28;20055;-87
2021/09/27 11:35:46;;;;;;;5.10;3.60;;;;;;;;;;10532569;28;20492;-87
2021/09/27 11:40:55;;;;;;;6.95;5.30;;;;;;;;;;10532680;28;20039;-86
2021/09/27 11:46:19;;;;;;;5.97;3.78;;;;;;;;;;10532447;28;20371;-87
2021/09/27 11:57:06;;;;;;;3.90;3.40;;;;;;;;;;10710478;23;20112;-85
2021/09/27 12:37:06;;;;;;;8.38;3.50;;;;;;;;;;10797516;23;20057;-87
2021/09/27 13:55:50;;;;;;;4.93;2.97;;;;;;;;;;10339668;28;20027;-87
2021/09/27 14:01:35;;;;;;;5.93;3.85;;;;;;;;;;10316767;28;20377;-86
2021/09/27 14:40:08;;;;;;;4.60;2.40;;;;;;;;;;10513981;28;20040;-84
2021/09/27 14:57:01;;;;;;;4.35;2.50;;;;;;;;;;10564050;28;20016;-86
2021/09/27 15:02:04;;;;;;;2.50;2.15;;;;;;;;;;10543275;28;20481;-86
2021/09/27 15:07:09;;;;;;;3.20;2.10;;;;;;;;;;10541115;28;20046;-85
2021/09/27 15:12:16;;;;;;;3.60;2.05;;;;;;;;;;10541521;28;20055;-85
2021/09/27 15:17:17;;;;;;;3.97;2.13;;;;;;;;;;10542834;28;20490;-86
2021/09/27 15:22:34;;;;;;;4.40;3.13;;;;;;;;;;10548210;28;20062;-87
2021/09/27 15:27:38;;;;;;;5.38;2.40;;;;;;;;;;10538634;28;20058;-86
2021/09/27 15:32:55;;;;;;;3.70;2.50;;;;;;;;;;10600111;22;20436;-86
2021/09/27 15:38:10;;;;;;;5.32;2.40;;;;;;;;;;10541178;28;20040;-86
2021/09/27 15:43:20;;;;;;;3.85;2.25;;;;;;;;;;10543830;28;20043;-86
2021/09/27 15:48:21;;;;;;;4.65;2.85;;;;;;;;;;10545218;28;20036;-86
2021/09/27 15:53:22;;;;;;;3.85;2.45;;;;;;;;;;10548662;28;20024;-85
2021/09/27 15:58:32;;;;;;;3.97;2.20;;;;;;;;;;10543520;28;20067;-86
2021/09/27 16:03:45;;;;;;;6.60;3.75;;;;;;;;;;10546798;28;20048;-86
2021/09/27 16:08:47;;;;;;;2.78;2.47;;;;;;;;;;10544479;28;20048;-86
2021/09/27 16:13:48;;;;;;;3.47;2.40;;;;;;;;;;10546003;28;20034;-86
2021/09/27 16:18:49;;;;;;;4.43;2.20;;;;;;;;;;10555353;28;20104;-85
2021/09/27 16:23:51;;;;;;;5.68;3.78;;;;;;;;;;10568645;28;20039;-84
2021/09/27 16:28:52;;;;;;;3.63;2.72;;;;;;;;;;10566330;28;20472;-86
2021/09/27 16:33:53;;;;;;;3.63;2.10;;;;;;;;;;10560874;28;20048;-86
2021/09/27 16:38:54;;;;;;;3.92;2.83;;;;;;;;;;10561608;28;20037;-86
2021/09/27 16:43:55;;;;;;;3.10;2.47;;;;;;;;;;10575969;28;20036;-85
2021/09/27 16:48:58;;;;;;;3.78;2.60;;;;;;;;;;10538514;28;20071;-86
2021/09/27 16:54:00;;;;;;;4.20;2.70;;;;;;;;;;10510466;28;20032;-86
2021/09/27 16:59:03;;;;;;;3.40;2.65;;;;;;;;;;10526331;28;20058;-86
2021/09/27 17:04:04;;;;;;;3.97;2.88;;;;;;;;;;10528414;28;20032;-85
2021/09/27 17:09:07;;;;;;;6.18;1.77;;;;;;;;;;10531598;28;20028;-86
2021/09/27 17:19:13;;;;;;;3.72;1.58;;;;;;;;;;10559993;28;20039;-86
2021/09/27 17:24:15;;;;;;;2.47;1.00;;;;;;;;;;10544539;28;20093;-86
2021/09/27 17:29:18;;;;;;;4.57;1.20;;;;;;;;;;10543443;28;20028;-86
2021/09/27 17:34:18;;;;;;;3.72;1.63;;;;;;;;;;10527208;28;20515;-86
2021/09/27 17:39:23;;;;;;;3.63;2.00;;;;;;;;;;10527301;28;20090;-87
2021/09/27 17:44:24;;;;;;;3.60;2.03;;;;;;;;;;10526479;28;20089;-87
2021/09/27 17:49:25;;;;;;;2.30;1.40;;;;;;;;;;10525289;28;20535;-86
2021/09/27 17:54:26;;;;;;;2.80;2.00;;;;;;;;;;10524378;28;20028;-86
2021/09/27 17:59:27;;;;;;;4.13;2.17;;;;;;;;;;10562138;28;20566;-86
2021/09/27 18:04:28;;;;;;;3.30;1.90;;;;;;;;;;10549612;28;20051;-87
2021/09/27 18:09:33;;;;;;;4.03;2.20;;;;;;;;;;10553616;28;20033;-87
2021/09/27 18:14:34;;;;;;;3.80;2.47;;;;;;;;;;10553337;28;20398;-86
2021/09/27 18:19:37;;;;;;;3.53;2.20;;;;;;;;;;10524860;28;20036;-86
2021/09/27 18:24:38;;;;;;;3.90;1.92;;;;;;;;;;10544386;28;20107;-86
2021/09/27 18:29:39;;;;;;;3.60;2.30;;;;;;;;;;10530862;28;20040;-86
2021/09/27 18:34:40;;;;;;;2.88;2.15;;;;;;;;;;10523476;28;20047;-87
2021/09/27 18:39:41;;;;;;;4.15;2.03;;;;;;;;;;10524542;28;20131;-86
2021/09/27 18:44:42;;;;;;;4.35;2.00;;;;;;;;;;10526584;28;20028;-85
2021/09/27 18:49:43;;;;;;;3.10;1.92;;;;;;;;;;10528287;28;20040;-85
2021/09/27 18:54:44;;;;;;;3.97;2.13;;;;;;;;;;10525960;28;20020;-85
2021/09/27 18:59:45;;;;;;;3.40;2.25;;;;;;;;;;10533134;28;20043;-85
2021/09/27 19:04:46;;;;;;;3.50;2.20;;;;;;;;;;10534206;28;20036;-86
2021/09/27 19:09:47;;;;;;;3.53;2.40;;;;;;;;;;10532377;28;20032;-85
2021/09/27 19:14:48;;;;;;;2.58;1.90;;;;;;;;;;10529585;28;20441;-85
2021/09/27 19:19:49;;;;;;;3.30;2.20;;;;;;;;;;10531935;28;20040;-86
2021/09/27 19:24:50;;;;;;;3.65;2.00;;;;;;;;;;10528740;28;20028;-86
2021/09/27 19:29:51;;;;;;;2.67;2.00;;;;;;;;;;10528785;28;20401;-85
2021/09/27 19:34:52;;;;;;;6.00;2.55;;;;;;;;;;10528612;28;20072;-85
2021/09/27 19:39:53;;;;;;;3.80;2.20;;;;;;;;;;10529718;28;20197;-85
2021/09/27 19:44:54;;;;;;;3.78;1.75;;;;;;;;;;10536916;28;20032;-85
2021/09/27 19:49:55;;;;;;;5.10;2.70;;;;;;;;;;10534454;28;20036;-85
2021/09/27 19:54:56;;;;;;;17.23;2.83;;;;;;;;;;10538037;28;20120;-85
2021/09/27 19:59:57;;;;;;;4.05;2.20;;;;;;;;;;10534026;28;20060;-85
2021/09/27 20:04:59;;;;;;;4.82;2.42;;;;;;;;;;10527272;28;20028;-85
2021/09/27 20:09:59;;;;;;;3.65;2.08;;;;;;;;;;10527953;28;20039;-85
2021/09/27 20:15:01;;;;;;;4.68;2.33;;;;;;;;;;10526972;28;20500;-85
